sensor_id;sensor_type;location;lat;lon;timestamp;P1;durP1;ratioP1;P2;durP2;ratioP2
46417;SDS011;69884;64.758;20.962;2023-05-10T00:01:39;6.78;;;2.60;;
46417;SDS011;69884;64.758;20.962;2023-05-10T00:04:05;4.47;;;2.63;;
46417;SDS011;69884;64.758;20.962;2023-05-10T00:06:30;8.27;;;2.97;;
46417;SDS011;69884;64.758;20.962;2023-05-10T00:08:56;6.07;;;2.87;;
46417;SDS011;69884;64.758;20.962;2023-05-10T00:11:22;7.77;;;2.80;;
46417;SDS011;69884;64.758;20.962;2023-05-10T00:13:47;5.33;;;2.40;;
46417;SDS011;69884;64.758;20.962;2023-05-10T00:16:12;7.63;;;2.67;;
46417;SDS011;69884;64.758;20.962;2023-05-10T00:18:38;3.97;;;2.60;;
46417;SDS011;69884;64.758;20.962;2023-05-10T00:21:03;6.70;;;2.90;;
46417;SDS011;69884;64.758;20.962;2023-05-10T00:23:29;5.27;;;2.40;;
46417;SDS011;69884;64.758;20.962;2023-05-10T00:25:54;4.47;;;2.33;;
46417;SDS011;69884;64.758;20.962;2023-05-10T00:28:19;6.33;;;2.70;;
46417;SDS011;69884;64.758;20.962;2023-05-10T00:30:45;6.73;;;2.50;;
46417;SDS011;69884;64.758;20.962;2023-05-10T00:33:10;5.17;;;2.80;;
46417;SDS011;69884;64.758;20.962;2023-05-10T00:35:36;9.00;;;2.87;;
46417;SDS011;69884;64.758;20.962;2023-05-10T00:38:03;6.22;;;2.88;;
46417;SDS011;69884;64.758;20.962;2023-05-10T00:40:28;9.53;;;3.20;;
46417;SDS011;69884;64.758;20.962;2023-05-10T00:42:53;5.90;;;2.70;;
46417;SDS011;69884;64.758;20.962;2023-05-10T00:45:19;9.40;;;3.63;;
46417;SDS011;69884;64.758;20.962;2023-05-10T00:47:44;8.20;;;2.73;;
46417;SDS011;69884;64.758;20.962;2023-05-10T00:50:09;4.80;;;2.50;;
46417;SDS011;69884;64.758;20.962;2023-05-10T00:52:35;7.23;;;2.57;;
46417;SDS011;69884;64.758;20.962;2023-05-10T00:55:00;4.72;;;2.70;;
46417;SDS011;69884;64.758;20.962;2023-05-10T00:57:26;6.03;;;2.67;;
46417;SDS011;69884;64.758;20.962;2023-05-10T00:59:51;6.95;;;2.45;;
46417;SDS011;69884;64.758;20.962;2023-05-10T01:02:17;4.87;;;2.60;;
46417;SDS011;69884;64.758;20.962;2023-05-10T01:04:42;6.97;;;2.87;;
46417;SDS011;69884;64.758;20.962;2023-05-10T01:07:08;7.77;;;3.20;;
46417;SDS011;69884;64.758;20.962;2023-05-10T01:09:33;5.27;;;2.50;;
46417;SDS011;69884;64.758;20.962;2023-05-10T01:11:58;5.57;;;2.70;;
46417;SDS011;69884;64.758;20.962;2023-05-10T01:14:24;6.10;;;2.65;;
46417;SDS011;69884;64.758;20.962;2023-05-10T01:16:50;7.88;;;3.10;;
46417;SDS011;69884;64.758;20.962;2023-05-10T01:19:24;6.35;;;2.75;;
46417;SDS011;69884;64.758;20.962;2023-05-10T01:27:07;7.07;;;2.70;;
46417;SDS011;69884;64.758;20.962;2023-05-10T01:29:47;5.70;;;2.70;;
46417;SDS011;69884;64.758;20.962;2023-05-10T01:34:48;3.30;;;2.30;;
46417;SDS011;69884;64.758;20.962;2023-05-10T01:37:21;4.85;;;2.80;;
46417;SDS011;69884;64.758;20.962;2023-05-10T01:39:49;6.10;;;2.88;;
46417;SDS011;69884;64.758;20.962;2023-05-10T01:42:25;4.60;;;2.70;;
46417;SDS011;69884;64.758;20.962;2023-05-10T01:44:57;6.18;;;3.05;;
46417;SDS011;69884;64.758;20.962;2023-05-10T01:49:58;7.05;;;3.00;;
46417;SDS011;69884;64.758;20.962;2023-05-10T01:52:36;5.45;;;2.60;;
46417;SDS011;69884;64.758;20.962;2023-05-10T01:55:06;9.20;;;2.97;;
46417;SDS011;69884;64.758;20.962;2023-05-10T01:57:33;4.07;;;2.60;;
46417;SDS011;69884;64.758;20.962;2023-05-10T01:59:59;6.88;;;3.30;;
46417;SDS011;69884;64.758;20.962;2023-05-10T02:02:25;6.45;;;3.00;;
46417;SDS011;69884;64.758;20.962;2023-05-10T02:04:52;4.95;;;2.65;;
46417;SDS011;69884;64.758;20.962;2023-05-10T02:07:18;5.90;;;2.80;;
46417;SDS011;69884;64.758;20.962;2023-05-10T02:09:44;7.88;;;3.05;;
46417;SDS011;69884;64.758;20.962;2023-05-10T02:12:12;5.78;;;3.00;;
46417;SDS011;69884;64.758;20.962;2023-05-10T02:14:38;5.85;;;3.03;;
46417;SDS011;69884;64.758;20.962;2023-05-10T02:17:05;6.13;;;2.87;;
46417;SDS011;69884;64.758;20.962;2023-05-10T02:19:31;4.95;;;3.03;;
46417;SDS011;69884;64.758;20.962;2023-05-10T02:21:57;5.13;;;3.15;;
46417;SDS011;69884;64.758;20.962;2023-05-10T02:24:22;9.70;;;3.25;;
46417;SDS011;69884;64.758;20.962;2023-05-10T02:26:49;6.60;;;3.35;;
46417;SDS011;69884;64.758;20.962;2023-05-10T02:29:16;6.50;;;3.20;;
46417;SDS011;69884;64.758;20.962;2023-05-10T02:31:42;7.00;;;3.03;;
46417;SDS011;69884;64.758;20.962;2023-05-10T02:34:08;6.13;;;3.40;;
46417;SDS011;69884;64.758;20.962;2023-05-10T02:36:35;6.03;;;3.30;;
46417;SDS011;69884;64.758;20.962;2023-05-10T02:39:01;6.72;;;3.50;;
46417;SDS011;69884;64.758;20.962;2023-05-10T02:41:26;6.53;;;3.60;;
46417;SDS011;69884;64.758;20.962;2023-05-10T02:43:52;6.35;;;3.75;;
46417;SDS011;69884;64.758;20.962;2023-05-10T02:46:20;5.35;;;3.45;;
46417;SDS011;69884;64.758;20.962;2023-05-10T02:48:45;7.57;;;3.40;;
46417;SDS011;69884;64.758;20.962;2023-05-10T02:51:11;5.97;;;3.10;;
46417;SDS011;69884;64.758;20.962;2023-05-10T02:53:38;5.88;;;3.40;;
46417;SDS011;69884;64.758;20.962;2023-05-10T02:56:09;6.97;;;3.70;;
46417;SDS011;69884;64.758;20.962;2023-05-10T02:58:37;5.97;;;3.60;;
46417;SDS011;69884;64.758;20.962;2023-05-10T03:01:02;5.53;;;3.30;;
46417;SDS011;69884;64.758;20.962;2023-05-10T03:03:27;7.53;;;3.33;;
46417;SDS011;69884;64.758;20.962;2023-05-10T03:05:52;6.67;;;3.60;;
46417;SDS011;69884;64.758;20.962;2023-05-10T03:08:20;6.22;;;3.47;;
46417;SDS011;69884;64.758;20.962;2023-05-10T03:13:31;5.93;;;3.47;;
46417;SDS011;69884;64.758;20.962;2023-05-10T03:16:07;6.20;;;3.60;;
46417;SDS011;69884;64.758;20.962;2023-05-10T03:18:43;5.40;;;3.40;;
46417;SDS011;69884;64.758;20.962;2023-05-10T03:21:10;5.68;;;3.50;;
46417;SDS011;69884;64.758;20.962;2023-05-10T03:23:44;6.18;;;3.40;;
46417;SDS011;69884;64.758;20.962;2023-05-10T03:26:12;5.38;;;3.35;;
46417;SDS011;69884;64.758;20.962;2023-05-10T03:28:40;6.88;;;3.30;;
46417;SDS011;69884;64.758;20.962;2023-05-10T03:31:06;6.53;;;3.50;;
46417;SDS011;69884;64.758;20.962;2023-05-10T03:33:32;7.20;;;3.63;;
46417;SDS011;69884;64.758;20.962;2023-05-10T03:35:57;6.47;;;3.67;;
46417;SDS011;69884;64.758;20.962;2023-05-10T03:38:22;4.90;;;3.50;;
46417;SDS011;69884;64.758;20.962;2023-05-10T03:40:48;4.70;;;3.23;;
46417;SDS011;69884;64.758;20.962;2023-05-10T03:43:13;6.00;;;3.30;;
46417;SDS011;69884;64.758;20.962;2023-05-10T03:45:38;5.03;;;3.30;;
46417;SDS011;69884;64.758;20.962;2023-05-10T03:48:04;5.17;;;3.17;;
46417;SDS011;69884;64.758;20.962;2023-05-10T03:50:29;6.03;;;3.33;;
46417;SDS011;69884;64.758;20.962;2023-05-10T03:52:55;5.30;;;3.40;;
46417;SDS011;69884;64.758;20.962;2023-05-10T03:55:20;8.70;;;3.50;;
46417;SDS011;69884;64.758;20.962;2023-05-10T03:57:45;6.97;;;3.23;;
46417;SDS011;69884;64.758;20.962;2023-05-10T04:00:11;4.63;;;3.30;;
46417;SDS011;69884;64.758;20.962;2023-05-10T04:02:36;5.13;;;3.05;;
46417;SDS011;69884;64.758;20.962;2023-05-10T04:05:02;4.95;;;3.33;;
46417;SDS011;69884;64.758;20.962;2023-05-10T04:07:27;6.20;;;3.60;;
46417;SDS011;69884;64.758;20.962;2023-05-10T04:09:53;6.27;;;3.50;;
46417;SDS011;69884;64.758;20.962;2023-05-10T04:12:18;6.37;;;3.20;;
46417;SDS011;69884;64.758;20.962;2023-05-10T04:14:43;6.03;;;3.30;;
46417;SDS011;69884;64.758;20.962;2023-05-10T04:17:08;7.23;;;3.27;;
46417;SDS011;69884;64.758;20.962;2023-05-10T04:19:34;4.93;;;3.20;;
46417;SDS011;69884;64.758;20.962;2023-05-10T04:21:59;6.25;;;3.30;;
46417;SDS011;69884;64.758;20.962;2023-05-10T04:24:25;5.83;;;3.43;;
46417;SDS011;69884;64.758;20.962;2023-05-10T04:26:50;7.05;;;3.15;;
46417;SDS011;69884;64.758;20.962;2023-05-10T04:29:15;7.50;;;3.37;;
46417;SDS011;69884;64.758;20.962;2023-05-10T04:31:41;5.60;;;3.50;;
46417;SDS011;69884;64.758;20.962;2023-05-10T04:34:06;6.47;;;3.63;;
46417;SDS011;69884;64.758;20.962;2023-05-10T04:36:34;6.57;;;3.40;;
46417;SDS011;69884;64.758;20.962;2023-05-10T04:39:01;9.38;;;3.63;;
46417;SDS011;69884;64.758;20.962;2023-05-10T04:41:27;5.75;;;3.20;;
46417;SDS011;69884;64.758;20.962;2023-05-10T04:43:53;8.33;;;3.63;;
46417;SDS011;69884;64.758;20.962;2023-05-10T04:46:18;9.77;;;3.40;;
46417;SDS011;69884;64.758;20.962;2023-05-10T04:48:43;8.40;;;3.20;;
46417;SDS011;69884;64.758;20.962;2023-05-10T04:51:09;7.30;;;2.90;;
46417;SDS011;69884;64.758;20.962;2023-05-10T04:53:34;5.53;;;3.10;;
46417;SDS011;69884;64.758;20.962;2023-05-10T04:55:59;14.63;;;3.50;;
46417;SDS011;69884;64.758;20.962;2023-05-10T04:58:25;9.43;;;3.57;;
46417;SDS011;69884;64.758;20.962;2023-05-10T05:00:50;9.05;;;3.42;;
46417;SDS011;69884;64.758;20.962;2023-05-10T05:03:16;9.77;;;3.37;;
46417;SDS011;69884;64.758;20.962;2023-05-10T05:05:41;12.18;;;3.35;;
46417;SDS011;69884;64.758;20.962;2023-05-10T05:08:06;16.23;;;3.40;;
46417;SDS011;69884;64.758;20.962;2023-05-10T05:10:32;9.47;;;3.33;;
46417;SDS011;69884;64.758;20.962;2023-05-10T05:12:57;12.38;;;3.40;;
46417;SDS011;69884;64.758;20.962;2023-05-10T05:15:23;8.80;;;3.60;;
46417;SDS011;69884;64.758;20.962;2023-05-10T05:17:48;12.87;;;3.60;;
46417;SDS011;69884;64.758;20.962;2023-05-10T05:20:13;9.35;;;3.50;;
46417;SDS011;69884;64.758;20.962;2023-05-10T05:22:39;12.10;;;3.53;;
46417;SDS011;69884;64.758;20.962;2023-05-10T05:25:04;9.67;;;3.63;;
46417;SDS011;69884;64.758;20.962;2023-05-10T05:27:30;17.35;;;4.13;;
46417;SDS011;69884;64.758;20.962;2023-05-10T05:29:56;9.75;;;3.40;;
46417;SDS011;69884;64.758;20.962;2023-05-10T05:32:21;11.43;;;3.60;;
46417;SDS011;69884;64.758;20.962;2023-05-10T05:34:47;9.20;;;3.40;;
46417;SDS011;69884;64.758;20.962;2023-05-10T05:37:13;19.37;;;3.90;;
46417;SDS011;69884;64.758;20.962;2023-05-10T05:39:38;8.45;;;3.22;;
46417;SDS011;69884;64.758;20.962;2023-05-10T05:42:03;9.37;;;3.30;;
46417;SDS011;69884;64.758;20.962;2023-05-10T05:44:29;10.43;;;3.17;;
46417;SDS011;69884;64.758;20.962;2023-05-10T05:46:54;5.47;;;2.70;;
46417;SDS011;69884;64.758;20.962;2023-05-10T05:49:19;8.83;;;3.13;;
46417;SDS011;69884;64.758;20.962;2023-05-10T05:51:45;9.40;;;3.28;;
46417;SDS011;69884;64.758;20.962;2023-05-10T05:54:10;10.20;;;3.17;;
46417;SDS011;69884;64.758;20.962;2023-05-10T05:56:36;7.25;;;3.00;;
46417;SDS011;69884;64.758;20.962;2023-05-10T05:59:02;9.57;;;3.25;;
46417;SDS011;69884;64.758;20.962;2023-05-10T06:01:28;6.25;;;2.75;;
46417;SDS011;69884;64.758;20.962;2023-05-10T06:03:54;6.30;;;2.90;;
46417;SDS011;69884;64.758;20.962;2023-05-10T06:06:19;5.40;;;2.73;;
46417;SDS011;69884;64.758;20.962;2023-05-10T06:08:44;9.15;;;3.35;;
46417;SDS011;69884;64.758;20.962;2023-05-10T06:11:09;8.13;;;3.20;;
46417;SDS011;69884;64.758;20.962;2023-05-10T06:13:35;7.07;;;3.10;;
46417;SDS011;69884;64.758;20.962;2023-05-10T06:16:00;7.30;;;3.10;;
46417;SDS011;69884;64.758;20.962;2023-05-10T06:18:26;8.52;;;2.97;;
46417;SDS011;69884;64.758;20.962;2023-05-10T06:20:51;9.67;;;3.07;;
46417;SDS011;69884;64.758;20.962;2023-05-10T06:23:17;7.18;;;3.03;;
46417;SDS011;69884;64.758;20.962;2023-05-10T06:25:42;10.83;;;3.37;;
46417;SDS011;69884;64.758;20.962;2023-05-10T06:28:08;9.70;;;3.13;;
46417;SDS011;69884;64.758;20.962;2023-05-10T06:30:33;11.70;;;3.20;;
46417;SDS011;69884;64.758;20.962;2023-05-10T06:32:58;9.40;;;3.40;;
46417;SDS011;69884;64.758;20.962;2023-05-10T06:35:24;10.83;;;3.03;;
46417;SDS011;69884;64.758;20.962;2023-05-10T06:37:49;7.40;;;3.13;;
46417;SDS011;69884;64.758;20.962;2023-05-10T06:40:15;7.93;;;2.93;;
46417;SDS011;69884;64.758;20.962;2023-05-10T06:42:40;9.90;;;3.30;;
46417;SDS011;69884;64.758;20.962;2023-05-10T06:45:06;12.77;;;2.97;;
46417;SDS011;69884;64.758;20.962;2023-05-10T06:47:31;13.47;;;3.23;;
46417;SDS011;69884;64.758;20.962;2023-05-10T06:49:57;11.63;;;2.78;;
46417;SDS011;69884;64.758;20.962;2023-05-10T06:52:22;12.97;;;3.30;;
46417;SDS011;69884;64.758;20.962;2023-05-10T06:54:48;7.73;;;2.70;;
46417;SDS011;69884;64.758;20.962;2023-05-10T06:57:13;9.03;;;3.10;;
46417;SDS011;69884;64.758;20.962;2023-05-10T06:59:38;10.60;;;3.03;;
46417;SDS011;69884;64.758;20.962;2023-05-10T07:02:04;14.90;;;3.50;;
46417;SDS011;69884;64.758;20.962;2023-05-10T07:04:30;11.53;;;2.97;;
46417;SDS011;69884;64.758;20.962;2023-05-10T07:06:55;6.30;;;2.47;;
46417;SDS011;69884;64.758;20.962;2023-05-10T07:09:20;5.33;;;2.70;;
46417;SDS011;69884;64.758;20.962;2023-05-10T07:11:46;4.93;;;2.55;;
46417;SDS011;69884;64.758;20.962;2023-05-10T07:14:11;12.20;;;2.93;;
46417;SDS011;69884;64.758;20.962;2023-05-10T07:16:36;25.60;;;3.70;;
46417;SDS011;69884;64.758;20.962;2023-05-10T07:19:02;6.87;;;2.47;;
46417;SDS011;69884;64.758;20.962;2023-05-10T07:21:27;7.20;;;2.70;;
46417;SDS011;69884;64.758;20.962;2023-05-10T07:23:53;5.00;;;2.50;;
46417;SDS011;69884;64.758;20.962;2023-05-10T07:26:19;6.75;;;2.55;;
46417;SDS011;69884;64.758;20.962;2023-05-10T07:28:44;4.63;;;2.50;;
46417;SDS011;69884;64.758;20.962;2023-05-10T07:31:09;6.07;;;2.70;;
46417;SDS011;69884;64.758;20.962;2023-05-10T07:33:35;6.53;;;3.00;;
46417;SDS011;69884;64.758;20.962;2023-05-10T07:36:00;12.27;;;3.13;;
46417;SDS011;69884;64.758;20.962;2023-05-10T07:38:26;6.87;;;2.53;;
46417;SDS011;69884;64.758;20.962;2023-05-10T07:40:51;8.93;;;2.93;;
46417;SDS011;69884;64.758;20.962;2023-05-10T07:43:16;15.70;;;2.70;;
46417;SDS011;69884;64.758;20.962;2023-05-10T07:45:41;8.17;;;2.33;;
46417;SDS011;69884;64.758;20.962;2023-05-10T07:48:07;9.70;;;2.60;;
46417;SDS011;69884;64.758;20.962;2023-05-10T07:50:32;6.37;;;2.50;;
46417;SDS011;69884;64.758;20.962;2023-05-10T07:52:57;8.23;;;2.90;;
46417;SDS011;69884;64.758;20.962;2023-05-10T07:55:23;10.55;;;2.50;;
46417;SDS011;69884;64.758;20.962;2023-05-10T07:57:48;9.90;;;2.57;;
46417;SDS011;69884;64.758;20.962;2023-05-10T08:00:15;7.33;;;2.47;;
46417;SDS011;69884;64.758;20.962;2023-05-10T08:02:41;11.13;;;2.60;;
46417;SDS011;69884;64.758;20.962;2023-05-10T08:05:07;7.93;;;2.13;;
46417;SDS011;69884;64.758;20.962;2023-05-10T08:07:32;13.52;;;2.70;;
46417;SDS011;69884;64.758;20.962;2023-05-10T08:09:58;8.93;;;2.40;;
46417;SDS011;69884;64.758;20.962;2023-05-10T08:12:23;7.67;;;2.30;;
46417;SDS011;69884;64.758;20.962;2023-05-10T08:14:49;5.63;;;2.07;;
46417;SDS011;69884;64.758;20.962;2023-05-10T08:17:14;5.85;;;1.90;;
46417;SDS011;69884;64.758;20.962;2023-05-10T08:19:39;8.13;;;2.10;;
46417;SDS011;69884;64.758;20.962;2023-05-10T08:22:05;6.63;;;2.15;;
46417;SDS011;69884;64.758;20.962;2023-05-10T08:24:30;5.67;;;2.10;;
46417;SDS011;69884;64.758;20.962;2023-05-10T08:26:57;3.92;;;1.70;;
46417;SDS011;69884;64.758;20.962;2023-05-10T08:29:23;11.53;;;2.00;;
46417;SDS011;69884;64.758;20.962;2023-05-10T08:31:48;9.67;;;2.00;;
46417;SDS011;69884;64.758;20.962;2023-05-10T08:34:13;8.73;;;2.13;;
46417;SDS011;69884;64.758;20.962;2023-05-10T08:36:38;4.63;;;1.90;;
46417;SDS011;69884;64.758;20.962;2023-05-10T08:39:04;6.03;;;1.97;;
46417;SDS011;69884;64.758;20.962;2023-05-10T08:41:29;6.33;;;2.07;;
46417;SDS011;69884;64.758;20.962;2023-05-10T08:43:55;7.67;;;2.30;;
46417;SDS011;69884;64.758;20.962;2023-05-10T08:46:21;6.93;;;1.93;;
46417;SDS011;69884;64.758;20.962;2023-05-10T08:48:47;5.43;;;1.67;;
46417;SDS011;69884;64.758;20.962;2023-05-10T08:51:13;6.18;;;1.95;;
46417;SDS011;69884;64.758;20.962;2023-05-10T08:53:39;5.90;;;2.15;;
46417;SDS011;69884;64.758;20.962;2023-05-10T08:56:05;5.13;;;1.88;;
46417;SDS011;69884;64.758;20.962;2023-05-10T08:58:30;6.43;;;2.28;;
46417;SDS011;69884;64.758;20.962;2023-05-10T09:00:56;4.20;;;1.80;;
46417;SDS011;69884;64.758;20.962;2023-05-10T09:03:21;4.57;;;2.00;;
46417;SDS011;69884;64.758;20.962;2023-05-10T09:05:50;5.77;;;1.70;;
46417;SDS011;69884;64.758;20.962;2023-05-10T09:08:15;8.75;;;2.40;;
46417;SDS011;69884;64.758;20.962;2023-05-10T09:10:44;4.97;;;1.90;;
46417;SDS011;69884;64.758;20.962;2023-05-10T09:13:12;3.20;;;1.80;;
46417;SDS011;69884;64.758;20.962;2023-05-10T09:15:38;13.00;;;3.17;;
46417;SDS011;69884;64.758;20.962;2023-05-10T09:18:03;8.70;;;2.65;;
46417;SDS011;69884;64.758;20.962;2023-05-10T09:20:29;9.98;;;2.40;;
46417;SDS011;69884;64.758;20.962;2023-05-10T09:22:54;6.00;;;2.07;;
46417;SDS011;69884;64.758;20.962;2023-05-10T09:25:19;7.27;;;2.10;;
46417;SDS011;69884;64.758;20.962;2023-05-10T09:27:46;9.67;;;2.40;;
46417;SDS011;69884;64.758;20.962;2023-05-10T09:30:15;4.68;;;1.85;;
46417;SDS011;69884;64.758;20.962;2023-05-10T09:32:44;4.80;;;1.95;;
46417;SDS011;69884;64.758;20.962;2023-05-10T09:35:13;4.32;;;1.70;;
46417;SDS011;69884;64.758;20.962;2023-05-10T09:37:39;3.83;;;1.70;;
46417;SDS011;69884;64.758;20.962;2023-05-10T09:40:12;6.68;;;2.15;;
46417;SDS011;69884;64.758;20.962;2023-05-10T09:42:38;6.00;;;1.98;;
46417;SDS011;69884;64.758;20.962;2023-05-10T09:45:06;7.73;;;2.40;;
46417;SDS011;69884;64.758;20.962;2023-05-10T09:47:34;8.63;;;2.13;;
46417;SDS011;69884;64.758;20.962;2023-05-10T09:50:00;5.10;;;1.87;;
46417;SDS011;69884;64.758;20.962;2023-05-10T09:52:51;5.63;;;2.00;;
46417;SDS011;69884;64.758;20.962;2023-05-10T09:55:16;5.20;;;1.77;;
46417;SDS011;69884;64.758;20.962;2023-05-10T09:57:41;6.50;;;2.07;;
46417;SDS011;69884;64.758;20.962;2023-05-10T10:00:07;6.93;;;2.10;;
46417;SDS011;69884;64.758;20.962;2023-05-10T10:02:32;6.15;;;2.08;;
46417;SDS011;69884;64.758;20.962;2023-05-10T10:04:58;5.73;;;2.00;;
46417;SDS011;69884;64.758;20.962;2023-05-10T10:07:25;5.20;;;2.00;;
46417;SDS011;69884;64.758;20.962;2023-05-10T10:09:51;4.43;;;1.80;;
46417;SDS011;69884;64.758;20.962;2023-05-10T10:12:16;8.70;;;1.60;;
46417;SDS011;69884;64.758;20.962;2023-05-10T10:14:42;5.07;;;2.00;;
46417;SDS011;69884;64.758;20.962;2023-05-10T10:17:07;6.55;;;1.90;;
46417;SDS011;69884;64.758;20.962;2023-05-10T10:19:33;5.28;;;1.80;;
46417;SDS011;69884;64.758;20.962;2023-05-10T10:22:00;8.68;;;1.98;;
46417;SDS011;69884;64.758;20.962;2023-05-10T10:24:25;5.37;;;1.80;;
46417;SDS011;69884;64.758;20.962;2023-05-10T10:26:51;5.10;;;1.80;;
46417;SDS011;69884;64.758;20.962;2023-05-10T10:34:26;7.10;;;1.90;;
46417;SDS011;69884;64.758;20.962;2023-05-10T10:36:53;5.05;;;1.95;;
46417;SDS011;69884;64.758;20.962;2023-05-10T10:39:19;5.88;;;1.65;;
46417;SDS011;69884;64.758;20.962;2023-05-10T10:41:54;7.30;;;2.33;;
46417;SDS011;69884;64.758;20.962;2023-05-10T10:46:59;4.97;;;2.30;;
46417;SDS011;69884;64.758;20.962;2023-05-10T10:49:25;8.25;;;1.90;;
46417;SDS011;69884;64.758;20.962;2023-05-10T10:54:35;7.93;;;2.10;;
46417;SDS011;69884;64.758;20.962;2023-05-10T10:57:10;5.30;;;2.13;;
46417;SDS011;69884;64.758;20.962;2023-05-10T10:59:35;5.97;;;2.00;;
46417;SDS011;69884;64.758;20.962;2023-05-10T11:02:00;9.40;;;2.20;;
46417;SDS011;69884;64.758;20.962;2023-05-10T11:04:27;7.43;;;2.10;;
46417;SDS011;69884;64.758;20.962;2023-05-10T11:06:52;6.60;;;2.00;;
46417;SDS011;69884;64.758;20.962;2023-05-10T11:09:41;5.57;;;2.00;;
46417;SDS011;69884;64.758;20.962;2023-05-10T11:12:08;7.07;;;2.30;;
46417;SDS011;69884;64.758;20.962;2023-05-10T11:14:33;5.10;;;1.90;;
46417;SDS011;69884;64.758;20.962;2023-05-10T11:16:58;8.10;;;2.20;;
46417;SDS011;69884;64.758;20.962;2023-05-10T11:19:24;9.75;;;2.30;;
46417;SDS011;69884;64.758;20.962;2023-05-10T11:24:29;7.20;;;1.90;;
46417;SDS011;69884;64.758;20.962;2023-05-10T11:26:55;5.63;;;2.00;;
46417;SDS011;69884;64.758;20.962;2023-05-10T11:29:21;6.35;;;1.90;;
46417;SDS011;69884;64.758;20.962;2023-05-10T11:31:46;6.57;;;2.13;;
46417;SDS011;69884;64.758;20.962;2023-05-10T11:34:33;5.60;;;1.80;;
46417;SDS011;69884;64.758;20.962;2023-05-10T11:36:59;6.93;;;1.80;;
46417;SDS011;69884;64.758;20.962;2023-05-10T11:39:30;6.65;;;1.98;;
46417;SDS011;69884;64.758;20.962;2023-05-10T11:41:56;6.53;;;1.90;;
46417;SDS011;69884;64.758;20.962;2023-05-10T11:44:22;7.47;;;2.10;;
46417;SDS011;69884;64.758;20.962;2023-05-10T11:46:47;4.72;;;1.98;;
46417;SDS011;69884;64.758;20.962;2023-05-10T11:49:13;7.60;;;2.42;;
46417;SDS011;69884;64.758;20.962;2023-05-10T11:51:39;11.10;;;2.30;;
46417;SDS011;69884;64.758;20.962;2023-05-10T11:54:08;8.60;;;2.10;;
46417;SDS011;69884;64.758;20.962;2023-05-10T11:56:34;5.97;;;2.38;;
46417;SDS011;69884;64.758;20.962;2023-05-10T11:58:59;6.90;;;2.40;;
46417;SDS011;69884;64.758;20.962;2023-05-10T12:01:26;9.32;;;2.13;;
46417;SDS011;69884;64.758;20.962;2023-05-10T12:03:53;7.18;;;2.17;;
46417;SDS011;69884;64.758;20.962;2023-05-10T12:06:18;5.13;;;1.95;;
46417;SDS011;69884;64.758;20.962;2023-05-10T12:08:45;5.30;;;2.17;;
46417;SDS011;69884;64.758;20.962;2023-05-10T12:11:11;7.50;;;2.35;;
46417;SDS011;69884;64.758;20.962;2023-05-10T12:13:37;5.30;;;2.10;;
46417;SDS011;69884;64.758;20.962;2023-05-10T12:16:12;5.10;;;2.10;;
46417;SDS011;69884;64.758;20.962;2023-05-10T12:18:38;9.02;;;2.10;;
46417;SDS011;69884;64.758;20.962;2023-05-10T12:21:04;7.63;;;2.42;;
46417;SDS011;69884;64.758;20.962;2023-05-10T12:23:30;4.67;;;2.30;;
46417;SDS011;69884;64.758;20.962;2023-05-10T12:26:01;7.90;;;2.30;;
46417;SDS011;69884;64.758;20.962;2023-05-10T12:28:26;7.53;;;1.88;;
46417;SDS011;69884;64.758;20.962;2023-05-10T12:30:54;10.83;;;2.20;;
46417;SDS011;69884;64.758;20.962;2023-05-10T12:33:20;14.90;;;2.67;;
46417;SDS011;69884;64.758;20.962;2023-05-10T12:35:52;12.77;;;2.77;;
46417;SDS011;69884;64.758;20.962;2023-05-10T12:38:24;9.73;;;2.13;;
46417;SDS011;69884;64.758;20.962;2023-05-10T12:40:50;6.63;;;2.23;;
46417;SDS011;69884;64.758;20.962;2023-05-10T12:43:15;7.87;;;2.27;;
46417;SDS011;69884;64.758;20.962;2023-05-10T12:45:40;19.40;;;3.17;;
46417;SDS011;69884;64.758;20.962;2023-05-10T12:48:06;9.10;;;2.20;;
46417;SDS011;69884;64.758;20.962;2023-05-10T12:50:31;4.97;;;2.10;;
46417;SDS011;69884;64.758;20.962;2023-05-10T12:52:56;6.37;;;2.03;;
46417;SDS011;69884;64.758;20.962;2023-05-10T12:55:21;9.73;;;2.20;;
46417;SDS011;69884;64.758;20.962;2023-05-10T12:57:47;5.53;;;2.17;;
46417;SDS011;69884;64.758;20.962;2023-05-10T13:00:12;10.27;;;2.50;;
46417;SDS011;69884;64.758;20.962;2023-05-10T13:02:38;5.30;;;2.03;;
46417;SDS011;69884;64.758;20.962;2023-05-10T13:05:04;7.80;;;1.90;;
46417;SDS011;69884;64.758;20.962;2023-05-10T13:07:30;9.40;;;2.55;;
46417;SDS011;69884;64.758;20.962;2023-05-10T13:09:55;8.77;;;1.97;;
46417;SDS011;69884;64.758;20.962;2023-05-10T13:12:21;6.70;;;2.30;;
46417;SDS011;69884;64.758;20.962;2023-05-10T13:14:46;6.00;;;1.97;;
46417;SDS011;69884;64.758;20.962;2023-05-10T13:17:11;6.77;;;2.10;;
46417;SDS011;69884;64.758;20.962;2023-05-10T13:19:36;5.57;;;2.20;;
46417;SDS011;69884;64.758;20.962;2023-05-10T13:22:02;10.23;;;1.90;;
46417;SDS011;69884;64.758;20.962;2023-05-10T13:24:27;8.30;;;2.33;;
46417;SDS011;69884;64.758;20.962;2023-05-10T13:26:53;7.60;;;2.10;;
46417;SDS011;69884;64.758;20.962;2023-05-10T13:29:18;9.07;;;2.37;;
46417;SDS011;69884;64.758;20.962;2023-05-10T13:31:44;8.17;;;2.00;;
46417;SDS011;69884;64.758;20.962;2023-05-10T13:34:09;9.63;;;2.00;;
46417;SDS011;69884;64.758;20.962;2023-05-10T13:36:35;13.35;;;3.03;;
46417;SDS011;69884;64.758;20.962;2023-05-10T13:39:00;9.13;;;2.20;;
46417;SDS011;69884;64.758;20.962;2023-05-10T13:41:27;15.32;;;2.40;;
46417;SDS011;69884;64.758;20.962;2023-05-10T13:43:52;12.55;;;2.22;;
46417;SDS011;69884;64.758;20.962;2023-05-10T13:46:18;10.95;;;2.25;;
46417;SDS011;69884;64.758;20.962;2023-05-10T13:48:44;10.18;;;2.30;;
46417;SDS011;69884;64.758;20.962;2023-05-10T13:51:09;5.97;;;2.10;;
46417;SDS011;69884;64.758;20.962;2023-05-10T13:53:34;8.23;;;2.17;;
46417;SDS011;69884;64.758;20.962;2023-05-10T13:56:00;11.83;;;2.20;;
46417;SDS011;69884;64.758;20.962;2023-05-10T13:58:25;8.57;;;2.27;;
46417;SDS011;69884;64.758;20.962;2023-05-10T14:00:50;8.80;;;2.13;;
46417;SDS011;69884;64.758;20.962;2023-05-10T14:03:16;6.37;;;1.63;;
46417;SDS011;69884;64.758;20.962;2023-05-10T14:05:41;11.45;;;2.22;;
46417;SDS011;69884;64.758;20.962;2023-05-10T14:08:07;9.40;;;1.95;;
46417;SDS011;69884;64.758;20.962;2023-05-10T14:10:34;6.65;;;1.90;;
46417;SDS011;69884;64.758;20.962;2023-05-10T14:12:59;7.30;;;1.90;;
46417;SDS011;69884;64.758;20.962;2023-05-10T14:15:24;10.97;;;2.10;;
46417;SDS011;69884;64.758;20.962;2023-05-10T14:17:50;4.97;;;1.87;;
46417;SDS011;69884;64.758;20.962;2023-05-10T14:20:15;9.33;;;1.90;;
46417;SDS011;69884;64.758;20.962;2023-05-10T14:22:40;10.93;;;2.03;;
46417;SDS011;69884;64.758;20.962;2023-05-10T14:25:06;5.10;;;1.80;;
46417;SDS011;69884;64.758;20.962;2023-05-10T14:27:31;4.90;;;1.80;;
46417;SDS011;69884;64.758;20.962;2023-05-10T14:29:57;8.63;;;1.92;;
46417;SDS011;69884;64.758;20.962;2023-05-10T14:32:22;6.73;;;1.70;;
46417;SDS011;69884;64.758;20.962;2023-05-10T14:34:48;3.50;;;2.07;;
46417;SDS011;69884;64.758;20.962;2023-05-10T14:37:13;6.47;;;2.17;;
46417;SDS011;69884;64.758;20.962;2023-05-10T14:39:38;4.97;;;2.00;;
46417;SDS011;69884;64.758;20.962;2023-05-10T14:42:04;8.73;;;2.10;;
46417;SDS011;69884;64.758;20.962;2023-05-10T14:44:29;3.75;;;1.70;;
46417;SDS011;69884;64.758;20.962;2023-05-10T14:46:55;5.60;;;1.87;;
46417;SDS011;69884;64.758;20.962;2023-05-10T14:49:21;6.75;;;2.08;;
46417;SDS011;69884;64.758;20.962;2023-05-10T14:51:47;5.85;;;1.67;;
46417;SDS011;69884;64.758;20.962;2023-05-10T14:54:13;4.03;;;1.83;;